VA3PC-13 Weather Reports


Display with metric or nautical units.
time (UTC)temp
F
wind
direction
speed
MPH
gust
MPH
rain 1hr
in
rain 24hr
in
rain mn
in
humidity
%
barometer
mb
20181019071516 40 226 6.0 11.0 0.00 0.42 0.00 100 1014.0
20181019070516 39 230 5.0 7.0 0.00 0.42 0.00 100 1014.1
20181019065516 39 227 6.0 9.0 0.00 0.42 0.00 100 1014.1
20181019064516 39 228 4.0 9.0 0.00 0.50 0.00 100 1014.2
20181019063517 39 227 4.0 9.0 0.00 0.52 0.00 100 1014.2
20181019062516 38 227 4.0 7.0 0.00 0.52 0.00 100 1014.4
20181019061517 38 224 4.0 8.0 0.00 0.52 0.00 100 1014.4
20181019060517 38 223 5.0 8.0 0.00 0.52 0.00 100 1014.4
20181019055516 38 225 4.0 8.0 0.00 0.52 0.00 100 1014.5
20181019054517 38 226 4.0 6.0 0.00 0.54 0.00 100 1014.5
20181019053516 38 219 4.0 6.0 0.00 0.54 0.00 100 1014.5
20181019052516 38 221 5.0 9.0 0.00 0.54 0.00 100 1014.6
20181019051516 37 222 5.0 9.0 0.00 0.54 0.00 100 1014.6
20181019050516 37 225 4.0 8.0 0.00 0.54 0.00 100 1014.6
20181019045516 37 219 5.0 9.0 0.00 0.54 0.00 100 1014.6
20181019044516 37 199 4.0 7.0 0.00 0.54 0.00 100 1014.7
20181019043516 37 227 4.0 8.0 0.00 0.54 0.00 100 1014.9
20181019042517 37 198 6.0 9.0 0.00 0.54 0.00 100 1014.8
20181019041517 36 226 5.0 9.0 0.00 0.54 0.00 100 1014.8
20181019040516 36 213 6.0 9.0 0.00 0.54 0.00 100 1014.9
20181019035516 36 212 6.0 9.0 0.00 0.54 0.54 100 1015.0
20181019034516 35 214 5.0 10.0 0.00 0.54 0.54 100 1015.0
20181019033516 35 214 4.0 7.0 0.00 0.54 0.54 100 1015.2
20181019032516 34 217 5.0 10.0 0.00 0.54 0.54 100 1015.4
20181019031516 34 212 5.0 8.0 0.00 0.54 0.54 100 1015.5
20181019030517 34 216 4.0 6.0 0.00 0.54 0.54 100 1015.8
20181019025516 34 205 3.0 6.0 0.00 0.54 0.54 100 1015.9
20181019024516 35 205 3.0 5.0 0.00 0.54 0.54 100 1016.0
20181019023517 35 199 2.0 5.0 0.00 0.54 0.54 100 1016.2
20181019022516 35 193 2.0 5.0 0.00 0.54 0.54 100 1016.4
20181019021516 36 204 2.0 4.0 0.00 0.54 0.54 100 1016.6
20181019020516 36 198 2.0 4.0 0.00 0.54 0.54 100 1016.8
20181019015516 36 202 2.0 5.0 0.00 0.56 0.54 100 1017.0
20181019014518 37 213 3.0 6.0 0.00 0.56 0.54 100 1017.2
20181019013516 37 211 3.0 5.0 0.00 0.56 0.54 100 1017.2
20181019012516 37 225 3.0 7.0 0.00 0.56 0.54 100 1017.2
20181019011517 37 224 4.0 8.0 0.00 0.57 0.54 100 1017.3
20181019010516 37 227 5.0 12.0 0.00 0.59 0.54 100 1017.4
20181019005516 38 222 5.0 11.0 0.00 0.59 0.54 100 1017.5
20181019004517 38 234 5.0 10.0 0.00 0.59 0.54 100 1017.4
20181019003516 38 227 6.0 12.0 0.00 0.59 0.54 100 1017.6
20181019002516 38 234 5.0 10.0 0.00 0.59 0.54 100 1017.4
20181019001517 38 222 7.0 13.0 0.00 0.62 0.54 100 1017.4
20181019000516 38 229 6.0 13.0 0.00 0.67 0.54 100 1017.5
20181018235517 38 221 8.0 15.0 0.00 0.67 0.54 100 1017.6
20181018234516 38 227 6.0 12.0 0.00 0.67 0.54 100 1018.0
20181018233516 38 224 6.0 11.0 0.00 0.67 0.54 100 1018.0
20181018232516 38 231 8.0 15.0 0.00 0.67 0.54 100 1018.2
20181018231516 38 239 7.0 13.0 0.00 0.71 0.54 100 1018.4
20181018230516 38 237 8.0 17.0 0.00 0.73 0.54 100 1018.5
20181018225516 38 227 9.0 15.0 0.08 0.73 0.54 100 1018.5
20181018224516 39 239 8.0 16.0 0.40 0.81 0.54 100 1018.7
20181018223517 39 235 8.0 13.0 0.40 0.86 0.54 100 1018.7
20181018222516 39 230 7.0 14.0 0.40 0.98 0.54 100 1018.7
20181018221516 39 241 6.0 11.0 0.41 1.00 0.54 100 1018.9
20181018220517 39 232 11.0 22.0 0.41 1.00 0.54 100 1018.9
20181018215516 40 231 13.0 28.0 0.33 0.92 0.46 100 1019.1
20181018214516 40 233 8.0 17.0 0.02 0.60 0.14 100 1019.6
20181018213517 41 243 8.0 19.0 0.02 0.60 0.14 100 1019.6
20181018212516 41 241 13.0 23.0 0.02 0.60 0.14 100 1019.7
20181018211517 42 231 10.0 19.0 0.00 0.58 0.12 100 1019.5
20181018210517 42 245 11.0 20.0 0.00 0.58 0.12 100 1019.7
20181018205516 41 240 7.0 16.0 0.00 0.58 0.12 100 1019.8
20181018204517 41 249 8.0 16.0 0.00 0.65 0.12 100 1019.9
20181018203516 40 232 9.0 15.0 0.00 0.69 0.12 100 1020.2
20181018202516 40 235 8.0 15.0 0.00 0.69 0.12 100 1020.5
20181018201519 41 228 7.0 13.0 0.00 0.69 0.12 100 1020.5
20181018200516 40 240 7.0 14.0 0.00 0.71 0.12 100 1020.7
20181018195516 41 234 7.0 15.0 0.00 0.84 0.12 100 1020.8
20181018194516 41 247 10.0 17.0 0.00 0.84 0.12 100 1021.0
20181018193516 41 244 10.0 16.0 0.00 0.97 0.12 100 1021.2
20181018192517 41 237 7.0 10.0 0.00 0.99 0.12 100 1021.3
20181018191516 41 233 9.0 18.0 0.00 0.99 0.12 100 1021.5
20181018190516 40 247 8.0 12.0 0.00 0.99 0.12 100 1021.9
20181018185517 40 238 9.0 17.0 0.00 0.99 0.12 100 1021.9
20181018184516 40 239 9.0 17.0 0.00 0.99 0.12 100 1022.1
20181018183516 39 233 6.0 13.0 0.00 0.99 0.12 100 1022.2
20181018182516 39 257 8.0 17.0 0.00 0.99 0.12 100 1022.3
20181018181516 39 246 12.0 18.0 0.00 0.99 0.12 100 1022.6
20181018180517 39 227 8.0 16.0 0.00 0.99 0.12 100 1023.0
20181018175516 38 266 5.0 11.0 0.00 0.99 0.12 100 1023.3
20181018174516 37 273 6.0 15.0 0.00 0.99 0.12 100 1023.4
20181018173517 37 277 7.0 14.0 0.00 0.99 0.12 100 1023.7
20181018172516 37 264 6.0 10.0 0.00 0.99 0.12 100 1023.8
20181018171516 36 272 6.0 14.0 0.00 0.99 0.12 100 1023.9
20181018170517 36 263 6.0 13.0 0.00 0.99 0.12 100 1024.3
20181018165516 36 273 6.0 13.0 0.00 0.99 0.12 100 1024.4
20181018164516 35 270 5.0 13.0 0.00 0.99 0.12 100 1024.7
20181018163516 35 276 7.0 15.0 0.00 0.99 0.12 100 1024.8
20181018162516 34 251 8.0 17.0 0.00 0.99 0.12 100 1024.8
20181018161517 34 256 6.0 14.0 0.00 0.99 0.12 100 1025.0
20181018160517 34 262 9.0 24.0 0.00 0.99 0.12 100 1025.1
20181018155516 33 242 7.0 10.0 0.00 0.99 0.12 100 1025.2
20181018154516 33 260 6.0 12.0 0.00 0.99 0.12 100 1025.4
20181018153516 33 240 8.0 13.0 0.00 0.99 0.12 100 1025.3
20181018152516 33 265 6.0 11.0 0.00 0.99 0.12 100 1025.3
20181018151516 33 261 6.0 13.0 0.00 0.99 0.12 100 1025.7
20181018150516 32 267 5.0 11.0 0.00 0.99 0.12 100 1025.9
20181018145517 32 267 8.0 24.0 0.00 0.99 0.12 100 1026.0
20181018144516 32 274 7.0 20.0 0.00 0.99 0.12 100 1025.9
20181018143516 31 265 7.0 21.0 0.00 0.99 0.12 100 1026.0
20181018142517 30 267 7.0 16.0 0.00 0.99 0.12 100 1026.0
20181018141516 30 265 8.0 14.0 0.00 0.99 0.12 100 1026.1
20181018140516 30 250 8.0 18.0 0.00 0.99 0.12 100 1026.1
20181018135516 29 231 1.0 4.0 0.00 1.00 0.12 100 1026.2
20181018134516 29 241 3.0 7.0 0.00 1.00 0.12 100 1026.2
20181018133517 29 227 3.0 8.0 0.00 1.00 0.12 100 1026.3
20181018132516 29 243 3.0 6.0 0.00 1.00 0.12 100 1026.3
20181018131516 28 258 3.0 6.0 0.00 1.00 0.12 100 1026.4
20181018130517 28 235 3.0 6.0 0.00 1.00 0.12 100 1026.3
20181018125516 28 256 4.0 6.0 0.00 1.00 0.12 100 1026.3
20181018124516 28 304 6.0 12.0 0.00 1.00 0.12 100 1026.2
20181018123516 27 286 4.0 9.0 0.00 1.00 0.12 100 1026.2
20181018122516 27 299 3.0 9.0 0.00 1.00 0.12 100 1026.1
20181018121516 27 310 6.0 10.0 0.00 1.00 0.12 100 1026.0
20181018120516 27 290 5.0 11.0 0.00 1.00 0.12 100 1025.9
20181018115516 27 300 4.0 8.0 0.00 1.00 0.12 100 1025.8
20181018114516 27 312 4.0 10.0 0.00 1.00 0.12 100 1025.8
20181018113516 27 301 5.0 9.0 0.00 1.00 0.12 100 1025.7
20181018112516 27 316 5.0 9.0 0.00 1.00 0.12 100 1025.6
20181018111517 27 315 4.0 11.0 0.00 1.00 0.12 100 1025.6
20181018110516 27 313 7.0 12.0 0.00 1.00 0.12 100 1025.4
20181018105516 27 318 7.0 14.0 0.00 1.00 0.12 100 1025.4
20181018104517 27 299 4.0 15.0 0.00 1.00 0.12 100 1025.4
20181018103516 27 309 7.0 13.0 0.00 1.00 0.12 100 1025.5
20181018102516 27 300 5.0 9.0 0.00 1.00 0.12 100 1025.6
20181018101516 27 308 5.0 10.0 0.00 1.01 0.12 100 1025.5
20181018100516 27 324 3.0 8.0 0.00 1.01 0.12 100 1025.3
20181018095516 27 325 5.0 12.0 0.00 1.01 0.12 100 1025.3
20181018094516 27 304 7.0 11.0 0.00 1.01 0.12 100 1025.3
20181018093516 27 301 4.0 10.0 0.00 1.01 0.12 100 1025.2
20181018092516 27 311 5.0 12.0 0.00 1.01 0.12 100 1025.1
20181018090516 27 303 5.0 12.0 0.00 1.01 0.12 100 1024.8
20181018085516 27 317 6.0 12.0 0.00 1.01 0.12 100 1024.6
20181018084517 28 316 6.0 12.0 0.00 1.01 0.12 100 1024.5
20181018083517 28 325 9.0 20.0 0.00 1.01 0.12 100 1024.5
20181018082516 28 317 8.0 15.0 0.00 1.01 0.12 100 1024.4
20181018081517 28 317 7.0 13.0 0.00 1.01 0.12 100 1024.2
20181018080516 28 297 6.0 13.0 0.00 1.01 0.12 100 1024.3
20181018075516 28 311 6.0 11.0 0.00 1.01 0.12 100 1024.1
20181018074516 28 309 5.0 11.0 0.08 1.01 0.12 100 1023.9
20181018073516 28 318 7.0 13.0 0.10 1.01 0.12 100 1023.7
20181018072516 28 305 8.0 14.0 0.10 1.01 0.12 100 1023.7